sensor_id;sensor_type;location;lat;lon;timestamp;P1;durP1;ratioP1;P2;durP2;ratioP2
58208;SDS011;44006;52.028;4.696;2022-09-02T00:00:40;3.53;;;0.90;;
58208;SDS011;44006;52.028;4.696;2022-09-02T00:03:05;2.03;;;0.90;;
58208;SDS011;44006;52.028;4.696;2022-09-02T00:05:31;2.80;;;0.90;;
58208;SDS011;44006;52.028;4.696;2022-09-02T00:07:56;2.78;;;1.02;;
58208;SDS011;44006;52.028;4.696;2022-09-02T00:10:21;2.67;;;0.88;;
58208;SDS011;44006;52.028;4.696;2022-09-02T00:12:47;3.28;;;0.93;;
58208;SDS011;44006;52.028;4.696;2022-09-02T00:15:12;2.60;;;0.95;;
58208;SDS011;44006;52.028;4.696;2022-09-02T00:17:37;5.35;;;1.08;;
58208;SDS011;44006;52.028;4.696;2022-09-02T00:20:02;3.65;;;0.90;;
58208;SDS011;44006;52.028;4.696;2022-09-02T00:22:28;2.25;;;0.88;;
58208;SDS011;44006;52.028;4.696;2022-09-02T00:24:53;1.85;;;0.90;;
58208;SDS011;44006;52.028;4.696;2022-09-02T00:27:18;5.22;;;0.85;;
58208;SDS011;44006;52.028;4.696;2022-09-02T00:29:43;4.05;;;0.70;;
58208;SDS011;44006;52.028;4.696;2022-09-02T00:32:09;2.67;;;1.00;;
58208;SDS011;44006;52.028;4.696;2022-09-02T00:34:34;1.90;;;0.90;;
58208;SDS011;44006;52.028;4.696;2022-09-02T00:36:59;3.20;;;0.80;;
58208;SDS011;44006;52.028;4.696;2022-09-02T00:39:24;1.85;;;0.93;;
58208;SDS011;44006;52.028;4.696;2022-09-02T00:41:50;5.05;;;0.85;;
58208;SDS011;44006;52.028;4.696;2022-09-02T00:44:16;2.00;;;0.80;;
58208;SDS011;44006;52.028;4.696;2022-09-02T00:46:42;3.60;;;1.05;;
58208;SDS011;44006;52.028;4.696;2022-09-02T00:51:38;2.80;;;0.90;;
58208;SDS011;44006;52.028;4.696;2022-09-02T00:54:04;4.03;;;0.80;;
58208;SDS011;44006;52.028;4.696;2022-09-02T00:56:30;2.83;;;0.90;;
58208;SDS011;44006;52.028;4.696;2022-09-02T00:58:56;3.35;;;0.90;;
58208;SDS011;44006;52.028;4.696;2022-09-02T01:01:23;3.58;;;1.00;;
58208;SDS011;44006;52.028;4.696;2022-09-02T01:03:48;2.85;;;0.73;;
58208;SDS011;44006;52.028;4.696;2022-09-02T01:06:14;2.35;;;1.33;;
58208;SDS011;44006;52.028;4.696;2022-09-02T01:08:39;2.40;;;0.85;;
58208;SDS011;44006;52.028;4.696;2022-09-02T01:11:06;2.70;;;0.80;;
58208;SDS011;44006;52.028;4.696;2022-09-02T01:13:34;2.25;;;1.00;;
58208;SDS011;44006;52.028;4.696;2022-09-02T01:16:11;3.03;;;1.05;;
58208;SDS011;44006;52.028;4.696;2022-09-02T01:18:37;2.35;;;0.80;;
58208;SDS011;44006;52.028;4.696;2022-09-02T01:21:02;2.00;;;0.85;;
58208;SDS011;44006;52.028;4.696;2022-09-02T01:23:28;1.55;;;0.90;;
58208;SDS011;44006;52.028;4.696;2022-09-02T01:25:54;2.25;;;1.08;;
58208;SDS011;44006;52.028;4.696;2022-09-02T01:28:19;4.80;;;0.90;;
58208;SDS011;44006;52.028;4.696;2022-09-02T01:30:46;1.88;;;0.75;;
58208;SDS011;44006;52.028;4.696;2022-09-02T01:33:12;2.85;;;1.08;;
58208;SDS011;44006;52.028;4.696;2022-09-02T01:35:38;1.50;;;0.95;;
58208;SDS011;44006;52.028;4.696;2022-09-02T01:38:03;2.58;;;0.90;;
58208;SDS011;44006;52.028;4.696;2022-09-02T01:40:30;5.60;;;0.98;;
58208;SDS011;44006;52.028;4.696;2022-09-02T01:42:57;2.90;;;0.90;;
58208;SDS011;44006;52.028;4.696;2022-09-02T01:45:22;4.57;;;1.45;;
58208;SDS011;44006;52.028;4.696;2022-09-02T01:47:48;9.63;;;1.17;;
58208;SDS011;44006;52.028;4.696;2022-09-02T01:50:13;3.22;;;1.30;;
58208;SDS011;44006;52.028;4.696;2022-09-02T01:52:39;3.05;;;0.98;;
58208;SDS011;44006;52.028;4.696;2022-09-02T01:55:04;2.55;;;1.30;;
58208;SDS011;44006;52.028;4.696;2022-09-02T01:57:29;2.05;;;1.00;;
58208;SDS011;44006;52.028;4.696;2022-09-02T01:59:55;4.40;;;1.02;;
58208;SDS011;44006;52.028;4.696;2022-09-02T02:02:21;6.25;;;1.00;;
58208;SDS011;44006;52.028;4.696;2022-09-02T02:04:47;3.10;;;1.20;;
58208;SDS011;44006;52.028;4.696;2022-09-02T02:07:15;2.63;;;1.08;;
58208;SDS011;44006;52.028;4.696;2022-09-02T02:09:41;3.65;;;0.90;;
58208;SDS011;44006;52.028;4.696;2022-09-02T02:12:06;2.45;;;0.98;;
58208;SDS011;44006;52.028;4.696;2022-09-02T02:14:33;2.47;;;0.90;;
58208;SDS011;44006;52.028;4.696;2022-09-02T02:16:58;3.40;;;0.98;;
58208;SDS011;44006;52.028;4.696;2022-09-02T02:19:23;3.40;;;1.35;;
58208;SDS011;44006;52.028;4.696;2022-09-02T02:21:49;5.22;;;0.80;;
58208;SDS011;44006;52.028;4.696;2022-09-02T02:24:14;3.90;;;0.90;;
58208;SDS011;44006;52.028;4.696;2022-09-02T02:26:39;2.80;;;0.88;;
58208;SDS011;44006;52.028;4.696;2022-09-02T02:29:05;2.25;;;0.93;;
58208;SDS011;44006;52.028;4.696;2022-09-02T02:31:30;2.35;;;1.00;;
58208;SDS011;44006;52.028;4.696;2022-09-02T02:33:55;1.90;;;0.88;;
58208;SDS011;44006;52.028;4.696;2022-09-02T02:36:21;2.38;;;1.00;;
58208;SDS011;44006;52.028;4.696;2022-09-02T02:38:47;3.08;;;0.93;;
58208;SDS011;44006;52.028;4.696;2022-09-02T02:41:13;2.53;;;0.90;;
58208;SDS011;44006;52.028;4.696;2022-09-02T02:43:39;4.85;;;1.05;;
58208;SDS011;44006;52.028;4.696;2022-09-02T02:46:05;2.13;;;0.90;;
58208;SDS011;44006;52.028;4.696;2022-09-02T02:48:31;2.67;;;0.90;;
58208;SDS011;44006;52.028;4.696;2022-09-02T02:50:57;5.75;;;0.93;;
58208;SDS011;44006;52.028;4.696;2022-09-02T02:53:22;2.67;;;0.90;;
58208;SDS011;44006;52.028;4.696;2022-09-02T02:55:47;1.63;;;0.90;;
58208;SDS011;44006;52.028;4.696;2022-09-02T02:58:13;2.67;;;1.30;;
58208;SDS011;44006;52.028;4.696;2022-09-02T03:00:38;2.75;;;0.80;;
58208;SDS011;44006;52.028;4.696;2022-09-02T03:03:04;2.35;;;1.00;;
58208;SDS011;44006;52.028;4.696;2022-09-02T03:05:30;3.15;;;0.80;;
58208;SDS011;44006;52.028;4.696;2022-09-02T03:07:56;2.58;;;1.02;;
58208;SDS011;44006;52.028;4.696;2022-09-02T03:10:21;8.30;;;1.10;;
58208;SDS011;44006;52.028;4.696;2022-09-02T03:12:47;3.10;;;0.82;;
58208;SDS011;44006;52.028;4.696;2022-09-02T03:15:14;2.33;;;1.00;;
58208;SDS011;44006;52.028;4.696;2022-09-02T03:17:41;3.78;;;1.00;;
58208;SDS011;44006;52.028;4.696;2022-09-02T03:20:06;3.15;;;1.00;;
58208;SDS011;44006;52.028;4.696;2022-09-02T03:22:32;3.33;;;0.95;;
58208;SDS011;44006;52.028;4.696;2022-09-02T03:24:57;2.15;;;1.10;;
58208;SDS011;44006;52.028;4.696;2022-09-02T03:27:23;2.13;;;1.08;;
58208;SDS011;44006;52.028;4.696;2022-09-02T03:29:48;3.47;;;0.90;;
58208;SDS011;44006;52.028;4.696;2022-09-02T03:32:13;3.08;;;0.95;;
58208;SDS011;44006;52.028;4.696;2022-09-02T03:34:38;3.42;;;1.00;;
58208;SDS011;44006;52.028;4.696;2022-09-02T03:37:05;4.10;;;1.35;;
58208;SDS011;44006;52.028;4.696;2022-09-02T03:39:31;1.90;;;0.95;;
58208;SDS011;44006;52.028;4.696;2022-09-02T03:41:57;5.18;;;0.98;;
58208;SDS011;44006;52.028;4.696;2022-09-02T03:44:22;2.28;;;0.90;;
58208;SDS011;44006;52.028;4.696;2022-09-02T03:46:48;3.25;;;0.90;;
58208;SDS011;44006;52.028;4.696;2022-09-02T03:49:14;4.28;;;1.27;;
58208;SDS011;44006;52.028;4.696;2022-09-02T03:51:40;6.60;;;0.98;;
58208;SDS011;44006;52.028;4.696;2022-09-02T03:54:06;3.17;;;0.95;;
58208;SDS011;44006;52.028;4.696;2022-09-02T03:56:32;1.73;;;0.82;;
58208;SDS011;44006;52.028;4.696;2022-09-02T03:58:57;2.80;;;0.80;;
58208;SDS011;44006;52.028;4.696;2022-09-02T04:01:23;1.65;;;0.80;;
58208;SDS011;44006;52.028;4.696;2022-09-02T04:03:49;5.15;;;1.20;;
58208;SDS011;44006;52.028;4.696;2022-09-02T04:06:15;2.63;;;0.90;;
58208;SDS011;44006;52.028;4.696;2022-09-02T04:08:41;2.92;;;1.13;;
58208;SDS011;44006;52.028;4.696;2022-09-02T04:11:08;2.53;;;0.88;;
58208;SDS011;44006;52.028;4.696;2022-09-02T04:13:34;3.95;;;0.98;;
58208;SDS011;44006;52.028;4.696;2022-09-02T04:16:04;3.20;;;0.93;;
58208;SDS011;44006;52.028;4.696;2022-09-02T04:18:29;3.63;;;0.88;;
58208;SDS011;44006;52.028;4.696;2022-09-02T04:20:57;1.63;;;0.90;;
58208;SDS011;44006;52.028;4.696;2022-09-02T04:23:23;1.50;;;0.77;;
58208;SDS011;44006;52.028;4.696;2022-09-02T04:25:48;3.80;;;0.90;;
58208;SDS011;44006;52.028;4.696;2022-09-02T04:28:14;2.85;;;1.13;;
58208;SDS011;44006;52.028;4.696;2022-09-02T04:30:40;2.63;;;0.85;;
58208;SDS011;44006;52.028;4.696;2022-09-02T04:33:05;3.50;;;1.10;;
58208;SDS011;44006;52.028;4.696;2022-09-02T04:35:30;3.58;;;1.10;;
58208;SDS011;44006;52.028;4.696;2022-09-02T04:37:56;1.40;;;0.75;;
58208;SDS011;44006;52.028;4.696;2022-09-02T04:40:21;2.90;;;1.00;;
58208;SDS011;44006;52.028;4.696;2022-09-02T04:42:48;3.42;;;1.30;;
58208;SDS011;44006;52.028;4.696;2022-09-02T04:45:13;1.65;;;0.80;;
58208;SDS011;44006;52.028;4.696;2022-09-02T04:47:39;2.45;;;1.00;;
58208;SDS011;44006;52.028;4.696;2022-09-02T04:50:04;1.98;;;1.00;;
58208;SDS011;44006;52.028;4.696;2022-09-02T04:52:30;1.88;;;0.85;;
58208;SDS011;44006;52.028;4.696;2022-09-02T04:54:55;2.45;;;1.10;;
58208;SDS011;44006;52.028;4.696;2022-09-02T04:57:21;2.38;;;0.93;;
58208;SDS011;44006;52.028;4.696;2022-09-02T04:59:46;3.95;;;0.98;;
58208;SDS011;44006;52.028;4.696;2022-09-02T05:02:11;2.00;;;0.90;;
58208;SDS011;44006;52.028;4.696;2022-09-02T05:04:37;5.28;;;0.82;;
58208;SDS011;44006;52.028;4.696;2022-09-02T05:07:02;5.88;;;1.00;;
58208;SDS011;44006;52.028;4.696;2022-09-02T05:09:28;2.15;;;0.90;;
58208;SDS011;44006;52.028;4.696;2022-09-02T05:11:53;2.13;;;0.93;;
58208;SDS011;44006;52.028;4.696;2022-09-02T05:14:23;4.72;;;1.20;;
58208;SDS011;44006;52.028;4.696;2022-09-02T05:16:48;2.83;;;0.95;;
58208;SDS011;44006;52.028;4.696;2022-09-02T05:19:18;2.90;;;1.00;;
58208;SDS011;44006;52.028;4.696;2022-09-02T05:21:43;3.30;;;0.95;;
58208;SDS011;44006;52.028;4.696;2022-09-02T05:24:10;6.63;;;1.30;;
58208;SDS011;44006;52.028;4.696;2022-09-02T05:26:36;2.55;;;0.88;;
58208;SDS011;44006;52.028;4.696;2022-09-02T05:29:02;2.65;;;1.10;;
58208;SDS011;44006;52.028;4.696;2022-09-02T05:31:31;3.88;;;1.02;;
58208;SDS011;44006;52.028;4.696;2022-09-02T05:33:56;2.63;;;0.88;;
58208;SDS011;44006;52.028;4.696;2022-09-02T05:36:22;6.18;;;1.10;;
58208;SDS011;44006;52.028;4.696;2022-09-02T05:38:47;3.90;;;1.20;;
58208;SDS011;44006;52.028;4.696;2022-09-02T05:41:22;3.63;;;1.08;;
58208;SDS011;44006;52.028;4.696;2022-09-02T05:43:47;4.20;;;1.20;;
58208;SDS011;44006;52.028;4.696;2022-09-02T05:46:13;1.95;;;0.98;;
58208;SDS011;44006;52.028;4.696;2022-09-02T05:48:43;2.78;;;1.10;;
58208;SDS011;44006;52.028;4.696;2022-09-02T05:51:27;4.90;;;1.15;;
58208;SDS011;44006;52.028;4.696;2022-09-02T05:53:53;2.08;;;0.90;;
58208;SDS011;44006;52.028;4.696;2022-09-02T05:56:19;3.38;;;1.30;;
58208;SDS011;44006;52.028;4.696;2022-09-02T05:58:44;2.20;;;1.20;;
58208;SDS011;44006;52.028;4.696;2022-09-02T06:01:10;2.03;;;1.08;;
58208;SDS011;44006;52.028;4.696;2022-09-02T06:03:36;2.25;;;1.00;;
58208;SDS011;44006;52.028;4.696;2022-09-02T06:06:01;2.28;;;1.23;;
58208;SDS011;44006;52.028;4.696;2022-09-02T06:08:27;5.32;;;1.25;;
58208;SDS011;44006;52.028;4.696;2022-09-02T06:10:52;3.30;;;1.23;;
58208;SDS011;44006;52.028;4.696;2022-09-02T06:13:17;2.28;;;1.17;;
58208;SDS011;44006;52.028;4.696;2022-09-02T06:15:46;5.68;;;1.20;;
58208;SDS011;44006;52.028;4.696;2022-09-02T06:18:11;5.03;;;1.20;;
58208;SDS011;44006;52.028;4.696;2022-09-02T06:20:40;5.25;;;1.20;;
58208;SDS011;44006;52.028;4.696;2022-09-02T06:23:06;3.72;;;1.25;;
58208;SDS011;44006;52.028;4.696;2022-09-02T06:25:31;2.60;;;1.00;;
58208;SDS011;44006;52.028;4.696;2022-09-02T06:27:59;7.82;;;1.42;;
58208;SDS011;44006;52.028;4.696;2022-09-02T06:30:24;5.65;;;1.40;;
58208;SDS011;44006;52.028;4.696;2022-09-02T06:32:50;3.58;;;1.45;;
58208;SDS011;44006;52.028;4.696;2022-09-02T06:35:15;1.70;;;1.08;;
58208;SDS011;44006;52.028;4.696;2022-09-02T06:37:40;3.78;;;1.25;;
58208;SDS011;44006;52.028;4.696;2022-09-02T06:40:06;3.47;;;1.20;;
58208;SDS011;44006;52.028;4.696;2022-09-02T06:42:31;3.45;;;1.20;;
58208;SDS011;44006;52.028;4.696;2022-09-02T06:44:56;1.50;;;1.02;;
58208;SDS011;44006;52.028;4.696;2022-09-02T06:47:22;3.47;;;1.20;;
58208;SDS011;44006;52.028;4.696;2022-09-02T06:49:47;1.67;;;1.02;;
58208;SDS011;44006;52.028;4.696;2022-09-02T06:52:12;6.75;;;1.27;;
58208;SDS011;44006;52.028;4.696;2022-09-02T06:54:38;6.30;;;1.45;;
58208;SDS011;44006;52.028;4.696;2022-09-02T06:57:03;4.00;;;1.38;;
58208;SDS011;44006;52.028;4.696;2022-09-02T06:59:29;4.32;;;1.58;;
58208;SDS011;44006;52.028;4.696;2022-09-02T07:01:54;5.90;;;1.65;;
58208;SDS011;44006;52.028;4.696;2022-09-02T07:04:19;3.75;;;1.50;;
58208;SDS011;44006;52.028;4.696;2022-09-02T07:07:04;4.72;;;1.52;;
58208;SDS011;44006;52.028;4.696;2022-09-02T07:09:30;2.90;;;1.20;;
58208;SDS011;44006;52.028;4.696;2022-09-02T07:11:56;3.63;;;1.27;;
58208;SDS011;44006;52.028;4.696;2022-09-02T07:14:21;5.32;;;1.30;;
58208;SDS011;44006;52.028;4.696;2022-09-02T07:16:49;6.18;;;1.60;;
58208;SDS011;44006;52.028;4.696;2022-09-02T07:19:15;3.85;;;1.55;;
58208;SDS011;44006;52.028;4.696;2022-09-02T07:21:40;4.20;;;1.33;;
58208;SDS011;44006;52.028;4.696;2022-09-02T07:24:07;6.38;;;1.40;;
58208;SDS011;44006;52.028;4.696;2022-09-02T07:26:32;2.78;;;1.45;;
58208;SDS011;44006;52.028;4.696;2022-09-02T07:28:58;5.90;;;1.60;;
58208;SDS011;44006;52.028;4.696;2022-09-02T07:31:23;1.92;;;1.23;;
58208;SDS011;44006;52.028;4.696;2022-09-02T07:33:51;3.92;;;1.35;;
58208;SDS011;44006;52.028;4.696;2022-09-02T07:36:16;3.47;;;1.58;;
58208;SDS011;44006;52.028;4.696;2022-09-02T07:38:45;4.40;;;1.55;;
58208;SDS011;44006;52.028;4.696;2022-09-02T07:41:11;3.90;;;1.60;;
58208;SDS011;44006;52.028;4.696;2022-09-02T07:43:37;5.47;;;2.08;;
58208;SDS011;44006;52.028;4.696;2022-09-02T07:46:02;3.53;;;1.83;;
58208;SDS011;44006;52.028;4.696;2022-09-02T07:48:28;3.97;;;1.73;;
58208;SDS011;44006;52.028;4.696;2022-09-02T07:50:54;4.18;;;1.60;;
58208;SDS011;44006;52.028;4.696;2022-09-02T07:53:20;4.60;;;1.80;;
58208;SDS011;44006;52.028;4.696;2022-09-02T07:55:46;3.90;;;1.77;;
58208;SDS011;44006;52.028;4.696;2022-09-02T07:58:13;4.47;;;1.52;;
58208;SDS011;44006;52.028;4.696;2022-09-02T08:00:39;4.57;;;1.50;;
58208;SDS011;44006;52.028;4.696;2022-09-02T08:03:06;7.93;;;1.77;;
58208;SDS011;44006;52.028;4.696;2022-09-02T08:05:32;4.60;;;1.85;;
58208;SDS011;44006;52.028;4.696;2022-09-02T08:07:58;5.07;;;1.80;;
58208;SDS011;44006;52.028;4.696;2022-09-02T08:10:24;2.88;;;1.60;;
58208;SDS011;44006;52.028;4.696;2022-09-02T08:12:52;3.25;;;1.83;;
58208;SDS011;44006;52.028;4.696;2022-09-02T08:15:18;3.28;;;1.67;;
58208;SDS011;44006;52.028;4.696;2022-09-02T08:17:46;4.90;;;1.85;;
58208;SDS011;44006;52.028;4.696;2022-09-02T08:20:12;5.18;;;1.98;;
58208;SDS011;44006;52.028;4.696;2022-09-02T08:22:38;3.25;;;1.70;;
58208;SDS011;44006;52.028;4.696;2022-09-02T08:25:04;6.32;;;1.63;;
58208;SDS011;44006;52.028;4.696;2022-09-02T08:27:29;5.93;;;2.30;;
58208;SDS011;44006;52.028;4.696;2022-09-02T08:29:56;5.18;;;1.83;;
58208;SDS011;44006;52.028;4.696;2022-09-02T08:32:21;3.40;;;1.55;;
58208;SDS011;44006;52.028;4.696;2022-09-02T08:34:46;7.63;;;2.28;;
58208;SDS011;44006;52.028;4.696;2022-09-02T08:37:13;6.95;;;2.10;;
58208;SDS011;44006;52.028;4.696;2022-09-02T08:39:38;5.20;;;1.92;;
58208;SDS011;44006;52.028;4.696;2022-09-02T08:42:07;4.78;;;1.70;;
58208;SDS011;44006;52.028;4.696;2022-09-02T08:44:37;4.03;;;1.88;;
58208;SDS011;44006;52.028;4.696;2022-09-02T08:47:03;4.22;;;2.00;;
58208;SDS011;44006;52.028;4.696;2022-09-02T08:49:34;9.27;;;2.45;;
58208;SDS011;44006;52.028;4.696;2022-09-02T08:54:30;4.87;;;2.00;;
58208;SDS011;44006;52.028;4.696;2022-09-02T08:56:58;9.50;;;2.53;;
58208;SDS011;44006;52.028;4.696;2022-09-02T08:59:24;8.80;;;2.53;;
58208;SDS011;44006;52.028;4.696;2022-09-02T09:07:30;6.07;;;2.20;;
58208;SDS011;44006;52.028;4.696;2022-09-02T09:14:57;4.60;;;1.95;;
58208;SDS011;44006;52.028;4.696;2022-09-02T09:17:28;9.65;;;2.67;;
58208;SDS011;44006;52.028;4.696;2022-09-02T09:19:56;15.27;;;3.33;;
58208;SDS011;44006;52.028;4.696;2022-09-02T09:22:29;5.72;;;2.10;;
58208;SDS011;44006;52.028;4.696;2022-09-02T09:24:55;8.50;;;2.47;;
58208;SDS011;44006;52.028;4.696;2022-09-02T09:27:21;4.75;;;2.42;;
58208;SDS011;44006;52.028;4.696;2022-09-02T09:29:47;4.05;;;2.50;;
58208;SDS011;44006;52.028;4.696;2022-09-02T09:34:55;6.90;;;2.47;;
58208;SDS011;44006;52.028;4.696;2022-09-02T09:37:28;5.57;;;2.50;;
58208;SDS011;44006;52.028;4.696;2022-09-02T09:39:54;7.07;;;2.42;;
58208;SDS011;44006;52.028;4.696;2022-09-02T09:42:28;6.70;;;2.70;;
58208;SDS011;44006;52.028;4.696;2022-09-02T09:44:54;9.35;;;2.70;;
58208;SDS011;44006;52.028;4.696;2022-09-02T09:47:20;5.35;;;2.90;;
58208;SDS011;44006;52.028;4.696;2022-09-02T09:49:53;5.93;;;2.70;;
58208;SDS011;44006;52.028;4.696;2022-09-02T09:52:33;7.70;;;2.50;;
58208;SDS011;44006;52.028;4.696;2022-09-02T09:55:06;9.13;;;2.78;;
58208;SDS011;44006;52.028;4.696;2022-09-02T09:57:32;6.45;;;2.55;;
58208;SDS011;44006;52.028;4.696;2022-09-02T09:59:57;4.63;;;2.35;;
58208;SDS011;44006;52.028;4.696;2022-09-02T10:02:26;10.23;;;2.60;;
58208;SDS011;44006;52.028;4.696;2022-09-02T10:04:53;6.18;;;2.72;;
58208;SDS011;44006;52.028;4.696;2022-09-02T10:07:35;5.32;;;2.80;;
58208;SDS011;44006;52.028;4.696;2022-09-02T10:12:35;5.15;;;3.03;;
58208;SDS011;44006;52.028;4.696;2022-09-02T10:15:01;5.63;;;2.60;;
58208;SDS011;44006;52.028;4.696;2022-09-02T10:30:43;5.43;;;2.85;;
58208;SDS011;44006;52.028;4.696;2022-09-02T10:35:46;7.25;;;2.50;;
58208;SDS011;44006;52.028;4.696;2022-09-02T10:41:10;4.95;;;2.40;;
58208;SDS011;44006;52.028;4.696;2022-09-02T10:46:07;5.43;;;2.47;;
58208;SDS011;44006;52.028;4.696;2022-09-02T10:51:14;7.90;;;2.97;;
58208;SDS011;44006;52.028;4.696;2022-09-02T10:58:49;5.78;;;2.63;;
58208;SDS011;44006;52.028;4.696;2022-09-02T11:01:19;4.28;;;2.67;;
58208;SDS011;44006;52.028;4.696;2022-09-02T11:03:49;5.93;;;2.55;;
58208;SDS011;44006;52.028;4.696;2022-09-02T11:06:22;5.85;;;2.30;;
58208;SDS011;44006;52.028;4.696;2022-09-02T11:08:49;8.52;;;2.88;;
58208;SDS011;44006;52.028;4.696;2022-09-02T11:11:18;5.40;;;2.58;;
58208;SDS011;44006;52.028;4.696;2022-09-02T11:27:00;6.00;;;2.40;;
58208;SDS011;44006;52.028;4.696;2022-09-02T11:29:45;7.88;;;2.70;;
58208;SDS011;44006;52.028;4.696;2022-09-02T11:32:20;5.05;;;2.65;;
58208;SDS011;44006;52.028;4.696;2022-09-02T11:34:47;6.55;;;2.78;;
58208;SDS011;44006;52.028;4.696;2022-09-02T11:37:39;4.00;;;1.92;;
58208;SDS011;44006;52.028;4.696;2022-09-02T11:40:04;9.02;;;2.70;;
58208;SDS011;44006;52.028;4.696;2022-09-02T11:53:05;5.90;;;2.60;;
58208;SDS011;44006;52.028;4.696;2022-09-02T11:55:44;5.13;;;2.50;;
58208;SDS011;44006;52.028;4.696;2022-09-02T11:58:10;7.00;;;2.60;;
58208;SDS011;44006;52.028;4.696;2022-09-02T12:01:37;4.18;;;2.33;;
58208;SDS011;44006;52.028;4.696;2022-09-02T12:03:30;4.25;;;2.25;;
58208;SDS011;44006;52.028;4.696;2022-09-02T12:06:18;6.68;;;2.42;;
58208;SDS011;44006;52.028;4.696;2022-09-02T12:13:56;2.53;;;1.60;;
58208;SDS011;44006;52.028;4.696;2022-09-02T12:21:25;8.60;;;2.60;;
58208;SDS011;44006;52.028;4.696;2022-09-02T12:26:27;5.22;;;1.80;;
58208;SDS011;44006;52.028;4.696;2022-09-02T12:29:08;6.15;;;1.95;;
58208;SDS011;44006;52.028;4.696;2022-09-02T12:31:43;8.90;;;1.85;;
58208;SDS011;44006;52.028;4.696;2022-09-02T12:37:01;4.93;;;1.80;;
58208;SDS011;44006;52.028;4.696;2022-09-02T12:47:55;6.00;;;2.30;;
58208;SDS011;44006;52.028;4.696;2022-09-02T12:52:40;6.73;;;1.90;;
58208;SDS011;44006;52.028;4.696;2022-09-02T12:55:20;6.80;;;2.47;;
58208;SDS011;44006;52.028;4.696;2022-09-02T12:57:47;6.53;;;2.95;;
58208;SDS011;44006;52.028;4.696;2022-09-02T13:08:06;6.32;;;2.60;;
58208;SDS011;44006;52.028;4.696;2022-09-02T13:20:38;5.75;;;2.63;;
58208;SDS011;44006;52.028;4.696;2022-09-02T13:25:49;4.28;;;2.13;;
58208;SDS011;44006;52.028;4.696;2022-09-02T13:31:05;5.35;;;2.10;;
58208;SDS011;44006;52.028;4.696;2022-09-02T13:33:31;4.65;;;2.25;;
58208;SDS011;44006;52.028;4.696;2022-09-02T13:35:56;5.22;;;1.80;;
58208;SDS011;44006;52.028;4.696;2022-09-02T13:38:25;4.78;;;2.28;;
58208;SDS011;44006;52.028;4.696;2022-09-02T13:40:51;3.55;;;2.17;;
58208;SDS011;44006;52.028;4.696;2022-09-02T13:43:17;4.57;;;2.17;;
58208;SDS011;44006;52.028;4.696;2022-09-02T13:45:44;4.55;;;2.25;;
58208;SDS011;44006;52.028;4.696;2022-09-02T13:50:35;3.93;;;2.10;;
58208;SDS011;44006;52.028;4.696;2022-09-02T13:53:02;3.53;;;1.80;;
58208;SDS011;44006;52.028;4.696;2022-09-02T13:55:28;6.90;;;1.90;;
58208;SDS011;44006;52.028;4.696;2022-09-02T13:58:37;4.50;;;2.00;;
58208;SDS011;44006;52.028;4.696;2022-09-02T14:00:42;2.65;;;1.80;;
58208;SDS011;44006;52.028;4.696;2022-09-02T14:03:09;9.57;;;2.93;;
58208;SDS011;44006;52.028;4.696;2022-09-02T14:05:36;8.55;;;1.88;;
58208;SDS011;44006;52.028;4.696;2022-09-02T14:08:04;3.47;;;1.83;;
58208;SDS011;44006;52.028;4.696;2022-09-02T14:10:30;3.38;;;2.15;;
58208;SDS011;44006;52.028;4.696;2022-09-02T14:12:58;5.35;;;1.77;;
58208;SDS011;44006;52.028;4.696;2022-09-02T14:15:26;5.07;;;1.80;;
58208;SDS011;44006;52.028;4.696;2022-09-02T14:23:16;2.27;;;1.53;;
58208;SDS011;44006;52.028;4.696;2022-09-02T14:25:47;3.05;;;1.70;;
58208;SDS011;44006;52.028;4.696;2022-09-02T14:28:17;3.33;;;2.08;;
58208;SDS011;44006;52.028;4.696;2022-09-02T14:30:52;7.00;;;2.08;;
58208;SDS011;44006;52.028;4.696;2022-09-02T14:36:06;2.20;;;1.50;;
58208;SDS011;44006;52.028;4.696;2022-09-02T14:38:51;3.17;;;1.92;;
58208;SDS011;44006;52.028;4.696;2022-09-02T14:41:19;3.78;;;1.80;;
58208;SDS011;44006;52.028;4.696;2022-09-02T14:49:21;2.83;;;1.53;;
58208;SDS011;44006;52.028;4.696;2022-09-02T14:51:57;5.47;;;1.85;;
58208;SDS011;44006;52.028;4.696;2022-09-02T14:54:33;3.72;;;1.80;;
58208;SDS011;44006;52.028;4.696;2022-09-02T14:56:59;4.88;;;1.95;;
58208;SDS011;44006;52.028;4.696;2022-09-02T14:59:24;4.25;;;1.88;;
58208;SDS011;44006;52.028;4.696;2022-09-02T15:01:50;4.40;;;1.70;;
58208;SDS011;44006;52.028;4.696;2022-09-02T15:04:16;3.83;;;1.70;;
58208;SDS011;44006;52.028;4.696;2022-09-02T15:06:42;5.05;;;1.70;;
58208;SDS011;44006;52.028;4.696;2022-09-02T15:09:08;6.72;;;1.83;;
58208;SDS011;44006;52.028;4.696;2022-09-02T15:11:33;2.95;;;1.67;;
58208;SDS011;44006;52.028;4.696;2022-09-02T15:13:59;3.45;;;1.40;;
58208;SDS011;44006;52.028;4.696;2022-09-02T15:16:24;2.63;;;1.80;;
58208;SDS011;44006;52.028;4.696;2022-09-02T15:18:50;4.00;;;1.40;;
58208;SDS011;44006;52.028;4.696;2022-09-02T15:21:15;4.45;;;1.70;;
58208;SDS011;44006;52.028;4.696;2022-09-02T15:23:40;4.25;;;2.22;;
58208;SDS011;44006;52.028;4.696;2022-09-02T15:26:06;4.03;;;1.87;;
58208;SDS011;44006;52.028;4.696;2022-09-02T15:28:32;2.17;;;1.60;;
58208;SDS011;44006;52.028;4.696;2022-09-02T15:30:58;3.40;;;1.85;;
58208;SDS011;44006;52.028;4.696;2022-09-02T15:33:23;5.78;;;1.60;;
58208;SDS011;44006;52.028;4.696;2022-09-02T15:35:48;5.38;;;1.73;;
58208;SDS011;44006;52.028;4.696;2022-09-02T15:38:14;6.43;;;2.67;;
58208;SDS011;44006;52.028;4.696;2022-09-02T15:40:39;3.65;;;1.50;;
58208;SDS011;44006;52.028;4.696;2022-09-02T15:43:05;3.65;;;1.95;;
58208;SDS011;44006;52.028;4.696;2022-09-02T15:45:30;6.67;;;1.83;;
58208;SDS011;44006;52.028;4.696;2022-09-02T15:47:56;5.22;;;1.67;;
58208;SDS011;44006;52.028;4.696;2022-09-02T15:50:21;4.75;;;1.95;;
58208;SDS011;44006;52.028;4.696;2022-09-02T15:52:46;5.20;;;1.80;;
58208;SDS011;44006;52.028;4.696;2022-09-02T15:55:11;3.78;;;1.80;;
58208;SDS011;44006;52.028;4.696;2022-09-02T15:57:37;2.75;;;1.52;;
58208;SDS011;44006;52.028;4.696;2022-09-02T16:00:02;6.43;;;1.98;;
58208;SDS011;44006;52.028;4.696;2022-09-02T16:02:28;4.72;;;2.03;;
58208;SDS011;44006;52.028;4.696;2022-09-02T16:04:53;2.63;;;1.60;;
58208;SDS011;44006;52.028;4.696;2022-09-02T16:07:18;2.42;;;1.42;;
58208;SDS011;44006;52.028;4.696;2022-09-02T16:09:43;3.70;;;2.03;;
58208;SDS011;44006;52.028;4.696;2022-09-02T16:12:09;2.72;;;1.50;;
58208;SDS011;44006;52.028;4.696;2022-09-02T16:14:35;3.78;;;1.50;;
58208;SDS011;44006;52.028;4.696;2022-09-02T16:17:00;4.65;;;1.85;;
58208;SDS011;44006;52.028;4.696;2022-09-02T16:19:25;4.93;;;1.70;;
58208;SDS011;44006;52.028;4.696;2022-09-02T16:21:52;3.55;;;1.50;;
58208;SDS011;44006;52.028;4.696;2022-09-02T16:24:18;2.97;;;1.67;;
58208;SDS011;44006;52.028;4.696;2022-09-02T16:26:45;3.08;;;1.63;;
58208;SDS011;44006;52.028;4.696;2022-09-02T16:29:12;3.65;;;1.63;;
58208;SDS011;44006;52.028;4.696;2022-09-02T16:31:42;4.57;;;1.70;;
58208;SDS011;44006;52.028;4.696;2022-09-02T16:34:08;3.05;;;1.52;;
58208;SDS011;44006;52.028;4.696;2022-09-02T16:36:35;3.58;;;1.80;;
58208;SDS011;44006;52.028;4.696;2022-09-02T16:39:00;5.80;;;1.83;;
58208;SDS011;44006;52.028;4.696;2022-09-02T16:41:30;4.15;;;1.38;;
58208;SDS011;44006;52.028;4.696;2022-09-02T16:43:57;2.63;;;1.33;;
58208;SDS011;44006;52.028;4.696;2022-09-02T16:46:23;3.90;;;1.60;;
58208;SDS011;44006;52.028;4.696;2022-09-02T16:48:49;5.60;;;1.90;;
58208;SDS011;44006;52.028;4.696;2022-09-02T16:51:14;3.35;;;1.52;;
58208;SDS011;44006;52.028;4.696;2022-09-02T16:53:40;3.92;;;1.77;;
58208;SDS011;44006;52.028;4.696;2022-09-02T16:56:05;4.53;;;1.65;;
58208;SDS011;44006;52.028;4.696;2022-09-02T16:58:34;3.75;;;1.58;;
58208;SDS011;44006;52.028;4.696;2022-09-02T17:01:02;3.30;;;1.70;;
58208;SDS011;44006;52.028;4.696;2022-09-02T17:03:29;2.67;;;1.42;;
58208;SDS011;44006;52.028;4.696;2022-09-02T17:05:55;4.73;;;1.77;;